createdAt,value
2023-06-23T00:02:48.612Z,15.80
2023-06-23T00:07:50.761Z,15.70
2023-06-23T00:12:52.853Z,15.60
2023-06-23T00:17:55.139Z,15.50
2023-06-23T00:22:57.256Z,15.40
2023-06-23T00:28:01.496Z,15.40
2023-06-23T00:33:04.430Z,15.30
2023-06-23T00:38:06.634Z,15.30
2023-06-23T00:43:09.075Z,15.20
2023-06-23T00:48:15.439Z,15.10
2023-06-23T00:53:18.275Z,15.10
2023-06-23T00:58:20.478Z,15.00
2023-06-23T01:03:22.719Z,14.90
2023-06-23T01:08:43.435Z,14.80
2023-06-23T01:14:14.556Z,14.80
2023-06-23T01:19:33.911Z,14.70
2023-06-23T01:24:48.325Z,14.60
2023-06-23T01:29:54.220Z,14.60
2023-06-23T01:35:04.827Z,14.60
2023-06-23T01:40:13.805Z,14.40
2023-06-23T01:45:17.572Z,14.30
2023-06-23T01:50:22.427Z,14.40
2023-06-23T01:55:26.148Z,14.40
2023-06-23T02:00:29.741Z,14.30
2023-06-23T02:05:34.728Z,14.30
2023-06-23T02:10:38.332Z,14.20
2023-06-23T02:15:43.727Z,14.20
2023-06-23T02:20:47.127Z,14.10
2023-06-23T02:25:50.226Z,14.00
2023-06-23T02:30:53.098Z,14.00
2023-06-23T02:35:58.805Z,14.10
2023-06-23T02:41:06.758Z,14.40
2023-06-23T02:46:11.969Z,14.60
2023-06-23T02:51:17.637Z,14.70
2023-06-23T02:56:23.240Z,14.80
2023-06-23T03:01:28.203Z,14.80
2023-06-23T03:06:35.732Z,14.80
2023-06-23T03:11:38.543Z,14.80
2023-06-23T03:16:49.454Z,14.70
2023-06-23T03:22:04.147Z,14.70
2023-06-23T03:27:10.993Z,14.80
2023-06-23T03:32:19.295Z,14.80
2023-06-23T03:37:24.819Z,14.80
2023-06-23T03:42:28.082Z,14.90
2023-06-23T03:47:32.638Z,14.90
2023-06-23T03:52:37.576Z,14.90
2023-06-23T03:57:41.504Z,14.90
2023-06-23T04:02:45.973Z,15.00
2023-06-23T04:07:51.215Z,15.10
2023-06-23T04:12:54.821Z,15.20
2023-06-23T04:17:59.765Z,15.20
2023-06-23T04:23:05.671Z,15.20
2023-06-23T04:28:12.749Z,15.30
2023-06-23T04:33:14.926Z,15.30
2023-06-23T04:38:22.819Z,15.30
2023-06-23T04:43:47.198Z,15.30
2023-06-23T04:48:53.046Z,15.30
2023-06-23T04:53:59.469Z,15.40
2023-06-23T04:59:06.225Z,15.40
2023-06-23T05:04:10.148Z,15.40
2023-06-23T05:09:15.620Z,15.40
2023-06-23T05:14:20.427Z,15.50
2023-06-23T05:19:24.125Z,15.40
2023-06-23T05:24:28.584Z,15.50
2023-06-23T05:29:35.059Z,15.50
2023-06-23T05:34:38.094Z,15.50
2023-06-23T05:39:41.702Z,15.50
2023-06-23T05:44:43.982Z,15.50
2023-06-23T05:49:48.518Z,15.60
2023-06-23T05:54:54.734Z,15.60
2023-06-23T06:00:11.601Z,15.70
2023-06-23T06:05:19.623Z,15.80
2023-06-23T06:10:24.565Z,15.90
2023-06-23T06:15:27.864Z,16.00
2023-06-23T06:20:32.601Z,16.20
2023-06-23T06:25:36.732Z,16.40
2023-06-23T06:30:40.905Z,16.70
2023-06-23T06:35:45.424Z,17.10
2023-06-23T06:40:50.850Z,17.80
2023-06-23T06:45:54.010Z,19.30
2023-06-23T06:50:58.196Z,20.40
2023-06-23T06:56:00.939Z,20.40
2023-06-23T07:01:04.527Z,20.10
2023-06-23T07:06:07.731Z,20.50
2023-06-23T07:11:09.908Z,21.10
2023-06-23T07:16:12.027Z,21.60
2023-06-23T07:21:14.172Z,22.90
2023-06-23T07:26:16.364Z,24.00
2023-06-23T07:31:18.649Z,24.70
2023-06-23T07:36:20.783Z,25.10
2023-06-23T07:41:23.063Z,25.60
2023-06-23T07:46:25.322Z,26.20
2023-06-23T07:51:28.012Z,25.60
2023-06-23T07:56:30.214Z,25.70
2023-06-23T08:01:32.631Z,25.70
2023-06-23T08:06:34.757Z,26.10
2023-06-23T08:11:36.988Z,26.50
2023-06-23T08:16:39.384Z,25.70
2023-06-23T08:21:41.552Z,25.90
2023-06-23T08:26:43.775Z,25.70
2023-06-23T08:31:46.135Z,25.40
2023-06-23T08:36:48.443Z,25.60
2023-06-23T08:41:51.505Z,25.60
2023-06-23T08:47:06.243Z,25.90
2023-06-23T08:52:12.671Z,25.60
2023-06-23T08:57:15.504Z,24.90
2023-06-23T09:02:17.774Z,24.70
2023-06-23T09:07:20.101Z,24.80
2023-06-23T09:12:23.124Z,24.60
2023-06-23T09:17:26.422Z,24.70
2023-06-23T09:22:29.861Z,24.70
2023-06-23T09:27:44.237Z,24.70
2023-06-23T09:32:47.203Z,24.60
2023-06-23T09:37:49.596Z,25.00
2023-06-23T09:43:01.024Z,25.30
2023-06-23T09:48:03.383Z,25.30
2023-06-23T09:53:05.665Z,25.60
2023-06-23T09:58:11.877Z,25.40
2023-06-23T10:03:14.240Z,25.90
2023-06-23T10:08:16.346Z,26.40
2023-06-23T10:13:19.162Z,26.20
2023-06-23T10:18:21.806Z,25.70
2023-06-23T10:23:26.589Z,25.50
2023-06-23T10:28:30.948Z,25.80
2023-06-23T10:33:37.347Z,25.30
2023-06-23T10:38:45.471Z,25.60
2023-06-23T10:43:51.714Z,25.60
2023-06-23T10:48:54.676Z,25.70
2023-06-23T10:53:59.059Z,26.20
2023-06-23T10:59:17.482Z,26.60
2023-06-23T11:04:33.883Z,26.80
2023-06-23T11:09:53.799Z,27.40
2023-06-23T11:15:05.013Z,26.80
2023-06-23T11:20:11.959Z,26.40
2023-06-23T11:25:27.959Z,26.60
2023-06-23T11:30:30.177Z,26.00
2023-06-23T11:35:34.717Z,25.90
2023-06-23T11:40:37.689Z,26.80
2023-06-23T11:45:44.871Z,27.40
2023-06-23T11:50:47.052Z,26.90
2023-06-23T11:55:53.071Z,26.40
2023-06-23T12:00:55.255Z,26.30
2023-06-23T12:05:57.625Z,25.80
2023-06-23T12:10:59.857Z,26.10
2023-06-23T12:16:02.021Z,26.90
2023-06-23T12:21:05.239Z,27.50
2023-06-23T12:26:08.688Z,27.90
2023-06-23T12:31:10.981Z,28.30
2023-06-23T12:36:20.158Z,28.20
2023-06-23T12:41:25.270Z,28.70
2023-06-23T12:46:29.852Z,28.20
2023-06-23T12:51:36.800Z,27.60
2023-06-23T12:56:39.004Z,28.30
2023-06-23T13:01:41.940Z,27.40
2023-06-23T13:06:44.189Z,27.20
2023-06-23T13:11:46.776Z,27.00
2023-06-23T13:16:49.085Z,26.20
2023-06-23T13:21:52.993Z,25.90
2023-06-23T13:26:55.165Z,26.00
2023-06-23T13:31:58.827Z,26.00
2023-06-23T13:37:01.144Z,25.80
2023-06-23T13:42:03.641Z,26.20
2023-06-23T13:47:06.196Z,26.20
2023-06-23T13:52:08.728Z,26.80
2023-06-23T13:57:11.734Z,27.10
2023-06-23T14:02:14.016Z,27.00
2023-06-23T14:07:16.337Z,26.10
2023-06-23T14:12:18.627Z,26.00
2023-06-23T14:17:20.837Z,26.40
2023-06-23T14:22:24.531Z,26.70
2023-06-23T14:27:26.668Z,26.80
2023-06-23T14:32:31.266Z,26.40
2023-06-23T14:37:33.529Z,26.00
2023-06-23T14:42:35.677Z,26.10
2023-06-23T14:47:38.050Z,26.00
2023-06-23T14:52:42.534Z,26.00
2023-06-23T14:57:45.005Z,25.40
2023-06-23T15:02:47.337Z,24.70
2023-06-23T15:07:51.988Z,24.10
2023-06-23T15:12:54.200Z,23.90
2023-06-23T15:17:56.676Z,24.10
2023-06-23T15:23:02.875Z,24.40
2023-06-23T15:28:09.383Z,24.50
2023-06-23T15:33:11.630Z,25.30
2023-06-23T15:38:16.904Z,25.50
2023-06-23T15:43:20.918Z,25.70
2023-06-23T15:48:23.324Z,26.00
2023-06-23T15:53:25.526Z,25.90
2023-06-23T15:58:27.640Z,25.70
2023-06-23T16:03:29.988Z,25.70
2023-06-23T16:08:32.399Z,26.00
2023-06-23T16:13:34.535Z,26.20
2023-06-23T16:18:37.183Z,26.20
2023-06-23T16:23:40.133Z,25.90
2023-06-23T16:28:42.387Z,25.70
2023-06-23T16:33:44.842Z,25.50
2023-06-23T16:38:50.142Z,25.30
2023-06-23T16:44:00.015Z,24.90
2023-06-23T16:49:05.227Z,25.00
2023-06-23T16:54:07.366Z,25.20
2023-06-23T16:59:09.550Z,24.60
2023-06-23T17:09:36.538Z,24.40
2023-06-23T17:14:38.705Z,23.80
2023-06-23T17:19:40.841Z,23.70
2023-06-23T17:24:46.636Z,23.70
2023-06-23T17:29:48.785Z,23.60
2023-06-23T17:34:50.980Z,23.40
2023-06-23T17:39:54.077Z,23.30
2023-06-23T17:44:56.258Z,23.40
2023-06-23T17:49:58.470Z,23.40
2023-06-23T17:55:10.064Z,23.40
2023-06-23T18:00:12.939Z,23.30
2023-06-23T18:05:18.029Z,23.20
2023-06-23T18:10:24.159Z,23.10
2023-06-23T18:15:26.788Z,23.20
2023-06-23T18:20:33.228Z,22.90
2023-06-23T18:25:36.108Z,22.80
2023-06-23T18:30:42.136Z,22.80
2023-06-23T18:36:10.560Z,22.60
2023-06-23T18:41:15.780Z,22.70
2023-06-23T18:46:17.950Z,22.70
2023-06-23T18:51:20.085Z,22.80
2023-06-23T18:56:22.594Z,22.60
2023-06-23T19:01:25.421Z,22.20
2023-06-23T19:06:30.300Z,22.00
2023-06-23T19:11:32.513Z,21.90
2023-06-23T19:16:35.174Z,21.80
2023-06-23T19:21:37.297Z,21.70
2023-06-23T19:26:39.421Z,21.60
2023-06-23T19:31:41.695Z,21.40
2023-06-23T19:36:44.968Z,21.30
2023-06-23T19:41:47.265Z,21.20
2023-06-23T19:46:49.438Z,21.10
2023-06-23T19:51:52.022Z,21.00
2023-06-23T19:56:54.203Z,20.80
2023-06-23T20:01:56.396Z,20.60
2023-06-23T20:06:58.944Z,20.50
2023-06-23T20:12:01.104Z,20.40
2023-06-23T20:17:04.294Z,20.30
2023-06-23T20:22:07.936Z,20.30
2023-06-23T20:27:10.101Z,20.20
2023-06-23T20:32:12.838Z,20.00
2023-06-23T20:37:15.011Z,19.90
2023-06-23T20:42:17.197Z,19.60
2023-06-23T20:47:20.238Z,19.50
2023-06-23T20:52:22.492Z,19.40
2023-06-23T20:57:24.658Z,19.40
2023-06-23T21:02:26.934Z,19.40
2023-06-23T21:07:29.145Z,19.30
2023-06-23T21:12:32.468Z,19.20
2023-06-23T21:17:34.810Z,19.10
2023-06-23T21:22:37.130Z,19.00
2023-06-23T21:27:39.280Z,19.10
2023-06-23T21:32:41.541Z,19.10
2023-06-23T21:37:46.379Z,19.00
2023-06-23T21:42:48.885Z,18.90
2023-06-23T21:47:51.244Z,18.90
2023-06-23T21:52:53.463Z,18.80
2023-06-23T21:57:55.561Z,18.70
2023-06-23T22:02:57.799Z,18.70
2023-06-23T22:08:00.071Z,18.60
2023-06-23T22:13:03.371Z,18.50
2023-06-23T22:18:05.561Z,18.50
2023-06-23T22:23:07.724Z,18.50
2023-06-23T22:28:09.924Z,18.50
2023-06-23T22:33:12.073Z,18.40
2023-06-23T22:38:15.117Z,18.30
2023-06-23T22:43:17.262Z,18.30
2023-06-23T22:48:19.395Z,18.30
2023-06-23T22:53:21.925Z,18.20
2023-06-23T22:58:24.098Z,18.20
2023-06-23T23:03:26.272Z,18.10
2023-06-23T23:08:28.376Z,18.10
2023-06-23T23:13:30.555Z,18.00
2023-06-23T23:18:33.174Z,17.90
2023-06-23T23:23:35.425Z,17.90
2023-06-23T23:28:37.618Z,17.60
2023-06-23T23:33:40.882Z,17.70
2023-06-23T23:38:43.008Z,17.70
2023-06-23T23:43:45.408Z,17.60
2023-06-23T23:48:47.943Z,17.50
2023-06-23T23:53:50.043Z,17.50
2023-06-23T23:58:52.394Z,17.50
